createdAt,value
2022-09-24T00:04:29.842Z,97297.94
2022-09-24T00:14:32.835Z,97302.72
2022-09-24T00:24:52.856Z,97300.88
2022-09-24T00:34:54.882Z,97295.88
2022-09-24T00:44:56.525Z,97292.13
2022-09-24T00:54:58.050Z,97292.44
2022-09-24T01:04:59.881Z,97272.13
2022-09-24T01:15:16.499Z,97251.28
2022-09-24T01:25:36.288Z,97242.63
2022-09-24T01:35:42.438Z,97223.84
2022-09-24T01:45:45.177Z,97212.50
2022-09-24T01:55:52.235Z,97203.25
2022-09-24T02:05:59.850Z,97185.25
2022-09-24T02:16:07.914Z,97180.94
2022-09-24T02:26:10.145Z,97180.72
2022-09-24T02:36:12.586Z,97189.53
2022-09-24T02:46:14.085Z,97177.16
2022-09-24T02:56:15.523Z,97165.28
2022-09-24T03:06:17.345Z,97157.56
2022-09-24T03:16:19.194Z,97160.78
2022-09-24T03:26:20.920Z,97169.47
2022-09-24T03:36:24.893Z,97167.63
2022-09-24T03:46:28.492Z,97171.66
2022-09-24T03:56:30.062Z,97152.84
2022-09-24T04:06:31.730Z,97179.59
2022-09-24T04:16:33.243Z,97160.06
2022-09-24T04:26:34.720Z,97145.34
2022-09-24T04:36:36.148Z,97151.38
2022-09-24T04:46:37.649Z,97140.84
2022-09-24T04:56:39.337Z,97142.41
2022-09-24T05:06:40.788Z,97160.38
2022-09-24T05:16:42.280Z,97127.88
2022-09-24T05:27:02.185Z,97142.53
2022-09-24T05:37:04.862Z,97129.91
2022-09-24T05:47:06.310Z,97132.25
2022-09-24T05:57:07.944Z,97132.81
2022-09-24T06:07:10.744Z,97148.03
2022-09-24T06:17:12.345Z,97143.38
2022-09-24T06:27:13.766Z,97143.91
2022-09-24T06:37:15.207Z,97148.69
2022-09-24T06:47:16.999Z,97155.50
2022-09-24T06:57:18.398Z,97151.91
2022-09-24T07:07:33.345Z,97161.03
2022-09-24T07:17:34.937Z,97159.88
2022-09-24T07:27:37.013Z,97156.22
2022-09-24T07:37:39.615Z,97158.94
2022-09-24T07:47:41.141Z,97157.13
2022-09-24T07:57:47.935Z,97175.00
2022-09-24T08:07:58.939Z,97172.25
2022-09-24T08:18:03.398Z,97166.56
2022-09-24T08:28:06.079Z,97169.19
2022-09-24T08:38:09.184Z,97169.31
2022-09-24T08:48:21.694Z,97174.28
2022-09-24T08:58:35.202Z,97194.06
2022-09-24T09:09:07.960Z,97194.59
2022-09-24T09:19:15.778Z,97194.59
2022-09-24T09:29:18.109Z,97197.94
2022-09-24T09:39:53.194Z,97198.59
2022-09-24T09:49:57.870Z,97203.94
2022-09-24T09:59:59.406Z,97212.97
2022-09-24T10:10:18.447Z,97205.28
2022-09-24T10:20:29.313Z,97216.59
2022-09-24T10:30:33.780Z,97210.22
2022-09-24T10:40:40.608Z,97212.75
2022-09-24T10:50:58.122Z,97214.47
2022-09-24T11:01:51.525Z,97205.28
2022-09-24T11:12:21.687Z,97204.22
2022-09-24T11:22:41.360Z,97200.38
2022-09-24T11:32:42.811Z,97197.44
2022-09-24T11:43:16.581Z,97194.09
2022-09-24T11:53:44.630Z,97188.03
2022-09-24T12:03:57.058Z,97190.28
2022-09-24T12:14:09.075Z,97174.19
2022-09-24T12:24:34.515Z,97170.38
2022-09-24T12:34:40.125Z,97182.50
2022-09-24T12:44:51.373Z,97191.06
2022-09-24T12:54:59.634Z,97177.78
2022-09-24T13:05:01.005Z,97167.75
2022-09-24T13:15:09.302Z,97149.06
2022-09-24T13:25:10.666Z,97174.13
2022-09-24T13:35:21.799Z,97176.00
2022-09-24T13:45:24.766Z,97180.38
2022-09-24T13:55:33.971Z,97176.50
2022-09-24T14:05:36.903Z,97150.13
2022-09-24T14:15:38.554Z,97160.28
2022-09-24T14:25:40.207Z,97165.16
2022-09-24T14:35:46.998Z,97151.16
2022-09-24T14:45:51.071Z,97128.84
2022-09-24T14:55:52.951Z,97130.34
2022-09-24T15:06:06.088Z,97133.13
2022-09-24T15:16:21.272Z,97137.97
2022-09-24T15:26:29.106Z,97138.94
2022-09-24T15:36:31.150Z,97150.72
2022-09-24T15:46:32.607Z,97136.31
2022-09-24T15:56:35.847Z,97130.44
2022-09-24T16:06:37.373Z,97121.75
2022-09-24T16:16:39.468Z,97129.97
2022-09-24T16:26:40.978Z,97131.44
2022-09-24T16:36:42.418Z,97131.34
2022-09-24T16:46:44.542Z,97131.06
2022-09-24T16:56:50.113Z,97149.31
2022-09-24T17:06:56.193Z,97151.38
2022-09-24T17:16:57.633Z,97151.63
2022-09-24T17:26:59.071Z,97153.81
2022-09-24T17:37:00.605Z,97159.78
2022-09-24T17:47:02.120Z,97164.88
2022-09-24T17:57:03.749Z,97167.47
2022-09-24T18:07:05.191Z,97160.50
2022-09-24T18:17:06.672Z,97163.47
2022-09-24T18:27:08.067Z,97164.31
2022-09-24T18:37:09.879Z,97170.72
2022-09-24T18:47:14.634Z,97176.44
2022-09-24T18:57:16.103Z,97179.00
2022-09-24T19:07:17.939Z,97186.78
2022-09-24T19:17:19.595Z,97179.09
2022-09-24T19:27:21.023Z,97182.84
2022-09-24T19:37:23.146Z,97189.56
2022-09-24T19:47:25.655Z,97191.03
2022-09-24T19:57:27.876Z,97190.03
2022-09-24T20:07:29.289Z,97188.75
2022-09-24T20:17:30.702Z,97182.13
2022-09-24T20:27:51.026Z,97178.41
2022-09-24T20:37:52.581Z,97172.09
2022-09-24T20:47:54.042Z,97163.94
2022-09-24T20:57:55.487Z,97175.19
2022-09-24T21:07:56.935Z,97165.34
2022-09-24T21:18:21.125Z,97170.06
2022-09-24T21:28:19.827Z,97178.13
2022-09-24T21:38:21.251Z,97174.97
2022-09-24T21:48:23.482Z,97173.44
2022-09-24T21:58:25.052Z,97185.19
2022-09-24T22:08:29.850Z,97172.78
2022-09-24T22:18:31.757Z,97164.63
2022-09-24T22:28:33.484Z,97166.31
2022-09-24T22:38:35.949Z,97164.47
2022-09-24T22:48:37.962Z,97168.31
2022-09-24T22:58:44.886Z,97164.09
2022-09-24T23:08:47.523Z,97162.06
2022-09-24T23:18:55.329Z,97152.31
2022-09-24T23:28:57.963Z,97157.66
2022-09-24T23:39:00.733Z,97155.09
2022-09-24T23:49:02.430Z,97151.81
2022-09-24T23:59:04.577Z,97143.59
